Time;durP1;ratioP1;P1;durP2;ratioP2;P2;SDS_P1;SDS_P2;PMS_P1;PMS_P2;Temp;Humidity;BMP_temperature;BMP_pressure;BME280_temperature;BME280_humidity;BME280_pressure;Samples;Min_cycle;Max_cycle;Signal;HPM_P1;HPM_P2
2021/10/30 00:05:39;;;;;;;36.17;20.75;;;;;;;3.21;93.81;99920.13;20818579;28;20053;-73
2021/10/30 00:15:40;;;;;;;40.05;22.63;;;;;;;3.22;93.96;99918.38;20819153;28;20049;-72
2021/10/30 00:25:42;;;;;;;43.70;25.80;;;;;;;3.17;95.06;99907.16;20818125;28;20491;-73
2021/10/30 00:35:43;;;;;;;40.83;22.67;;;;;;;3.19;93.99;99903.69;20830321;28;20045;-72
2021/10/30 00:45:46;;;;;;;45.75;24.27;;;;;;;3.16;96.64;99901.09;20844924;28;20041;-72
2021/10/30 00:55:48;;;;;;;40.58;21.10;;;;;;;3.29;96.03;99909.78;20844516;28;20076;-71
2021/10/30 01:05:49;;;;;;;39.03;21.40;;;;;;;3.13;94.58;99884.69;20844705;28;20057;-71
2021/10/30 01:15:51;;;;;;;39.83;22.60;;;;;;;2.98;95.19;99872.53;20844943;28;20538;-71
2021/10/30 01:25:58;;;;;;;42.33;21.63;;;;;;;2.98;96.35;99873.41;20843678;28;20054;-72
2021/10/30 01:36:08;;;;;;;38.90;21.45;;;;;;;2.95;95.67;99872.50;20843046;28;20498;-71
2021/10/30 01:46:09;;;;;;;41.67;22.50;;;;;;;2.98;96.08;99851.84;20835902;28;20439;-72
2021/10/30 01:56:11;;;;;;;44.58;23.67;;;;;;;3.16;97.23;99833.81;20828796;28;20052;-72
2021/10/30 02:06:13;;;;;;;48.95;24.42;;;;;;;3.22;97.40;99838.19;20828231;28;20068;-72
2021/10/30 02:16:14;;;;;;;43.20;23.40;;;;;;;3.23;97.43;99825.25;20827686;28;20057;-73
2021/10/30 02:26:16;;;;;;;40.72;24.55;;;;;;;3.03;96.87;99811.38;20826890;28;20088;-73
2021/10/30 02:36:17;;;;;;;43.22;23.85;;;;;;;3.16;97.60;99797.63;20825926;28;20104;-72
2021/10/30 02:46:19;;;;;;;41.97;23.33;;;;;;;3.23;97.60;99777.81;20826311;28;20738;-73
2021/10/30 02:56:20;;;;;;;48.25;26.48;;;;;;;3.31;97.89;99765.78;20828546;28;20512;-73
2021/10/30 03:06:22;;;;;;;45.10;24.27;;;;;;;3.18;98.07;99744.19;20824446;28;20128;-72
2021/10/30 03:16:24;;;;;;;45.00;24.42;;;;;;;3.36;98.69;99750.28;20823801;28;20061;-72
2021/10/30 03:26:26;;;;;;;44.53;25.30;;;;;;;3.26;98.76;99728.69;20821957;28;20045;-72
2021/10/30 03:36:27;;;;;;;47.00;24.58;;;;;;;3.26;97.99;99716.63;20820446;28;20057;-72
2021/10/30 03:46:29;;;;;;;47.70;24.25;;;;;;;3.38;98.72;99689.03;20820610;28;20076;-72
2021/10/30 03:56:30;;;;;;;49.60;25.75;;;;;;;3.57;98.14;99696.84;20820236;28;20053;-72
2021/10/30 04:06:32;;;;;;;47.97;24.77;;;;;;;3.49;99.23;99695.94;20817902;28;20053;-72
2021/10/30 04:16:34;;;;;;;49.50;25.20;;;;;;;3.58;98.97;99706.31;20818327;28;20054;-72
2021/10/30 04:26:36;;;;;;;43.97;23.25;;;;;;;3.56;99.09;99691.66;20819479;28;20060;-72
2021/10/30 04:36:37;;;;;;;41.13;22.92;;;;;;;3.33;98.30;99676.94;20819412;28;20053;-72
2021/10/30 04:46:39;;;;;;;48.25;24.25;;;;;;;3.41;98.91;99647.66;20818332;28;20049;-73
2021/10/30 04:56:40;;;;;;;43.78;23.63;;;;;;;3.50;98.81;99632.13;20817696;28;20103;-74
2021/10/30 05:06:42;;;;;;;43.65;22.80;;;;;;;3.57;99.15;99611.41;20817154;28;20399;-74
2021/10/30 05:16:44;;;;;;;41.35;20.80;;;;;;;3.57;98.13;99626.09;20816779;28;20053;-72
2021/10/30 05:26:45;;;;;;;40.15;21.83;;;;;;;3.52;98.07;99614.88;20831036;28;20084;-72
2021/10/30 05:36:47;;;;;;;42.67;23.27;;;;;;;3.51;98.29;99606.25;20829607;28;20697;-73
2021/10/30 05:46:48;;;;;;;40.75;21.80;;;;;;;3.48;97.14;99595.03;20831004;28;20514;-74
2021/10/30 05:56:51;;;;;;;41.55;23.50;;;;;;;3.47;97.67;99550.19;20828801;28;20061;-73
2021/10/30 06:06:52;;;;;;;36.30;20.13;;;;;;;3.78;97.41;99512.13;20827417;28;20049;-72
2021/10/30 06:16:54;;;;;;;34.63;19.35;;;;;;;4.00;96.74;99505.19;20827263;28;20698;-72
2021/10/30 06:26:55;;;;;;;34.58;19.95;;;;;;;3.99;97.25;99541.47;20827194;28;20057;-73
2021/10/30 06:36:57;;;;;;;33.80;18.13;;;;;;;3.90;96.85;99544.94;20824668;28;20042;-73
2021/10/30 06:46:58;;;;;;;34.05;19.52;;;;;;;3.91;97.13;99540.59;20816591;28;20053;-73
2021/10/30 06:57:00;;;;;;;32.88;19.48;;;;;;;3.98;97.34;99500.88;20768332;28;20054;-73
2021/10/30 07:07:02;;;;;;;36.08;20.02;;;;;;;4.21;96.21;99522.34;20781829;28;20037;-73
2021/10/30 07:17:03;;;;;;;32.67;18.52;;;;;;;4.33;95.96;99537.88;20771264;28;20053;-73
2021/10/30 07:27:05;;;;;;;32.00;18.75;;;;;;;4.54;95.29;99543.81;20778649;28;20517;-72
2021/10/30 07:37:07;;;;;;;32.17;17.75;;;;;;;4.50;96.28;99580.97;20768869;28;20046;-73
2021/10/30 07:47:08;;;;;;;30.60;18.50;;;;;;;4.52;95.36;99567.16;20791374;28;20156;-71
2021/10/30 07:57:10;;;;;;;31.10;16.92;;;;;;;4.62;95.58;99606.88;20812873;28;20392;-71
2021/10/30 08:07:12;;;;;;;31.15;17.10;;;;;;;4.78;96.03;99643.94;20811054;28;20107;-71
2021/10/30 08:17:14;;;;;;;28.25;16.05;;;;;;;4.81;95.84;99629.25;20757030;28;20248;-71
2021/10/30 08:27:15;;;;;;;27.58;16.20;;;;;;;4.89;94.82;99609.34;20744807;28;20335;-74
2021/10/30 08:37:17;;;;;;;31.48;18.77;;;;;;;5.06;93.58;99601.44;20805914;28;20045;-72
2021/10/30 08:47:19;;;;;;;28.40;17.33;;;;;;;5.14;93.83;99624.75;20782109;28;20046;-72
2021/10/30 08:57:21;;;;;;;28.55;17.40;;;;;;;5.43;92.89;99611.56;20719053;28;20492;-72
2021/10/30 09:07:22;;;;;;;30.00;17.73;;;;;;;5.36;92.70;99578.72;20742343;28;20054;-72
2021/10/30 09:17:24;;;;;;;26.70;16.65;;;;;;;5.60;91.06;99608.81;20805017;28;20054;-71
2021/10/30 09:27:53;;;;;;;28.58;17.15;;;;;;;5.62;91.42;99612.28;20808318;28;20049;-71
2021/10/30 09:37:55;;;;;;;29.15;15.65;;;;;;;5.75;90.69;99607.81;20815726;28;20049;-71
2021/10/30 09:48:00;;;;;;;28.27;16.40;;;;;;;5.82;91.56;99615.56;20815390;28;20038;-71
2021/10/30 09:58:04;;;;;;;22.13;13.88;;;;;;;5.98;90.78;99620.66;20806641;28;20053;-71
2021/10/30 10:08:06;;;;;;;21.83;14.30;;;;;;;6.05;92.07;99571.22;20806688;28;20064;-72
2021/10/30 10:18:09;;;;;;;20.98;13.05;;;;;;;6.13;91.13;99615.28;20807425;28;20491;-73
2021/10/30 10:28:36;;;;;;;19.88;12.38;;;;;;;6.23;90.11;99619.53;20809672;28;20091;-82
2021/10/30 10:39:00;;;;;;;21.02;14.50;;;;;;;6.48;92.20;99648.72;20809001;28;20438;-72
2021/10/30 10:49:29;;;;;;;22.67;14.25;;;;;;;6.21;93.65;99610.03;20808633;28;20065;-72
2021/10/30 10:59:40;;;;;;;27.88;18.00;;;;;;;6.12;94.30;99613.56;20804789;28;20084;-77
2021/10/30 11:09:47;;;;;;;29.35;15.52;;;;;;;6.10;93.42;99578.97;20807606;28;20064;-76
2021/10/30 11:19:50;;;;;;;33.33;20.48;;;;;;;6.00;93.72;99531.41;20792756;28;20095;-78
2021/10/30 11:29:53;;;;;;;33.30;21.10;;;;;;;6.23;93.45;99528.56;20799469;28;20048;-74
2021/10/30 11:39:54;;;;;;;26.60;17.77;;;;;;;6.18;93.93;99587.53;20800444;28;20494;-78
2021/10/30 11:49:58;;;;;;;26.25;17.10;;;;;;;6.34;93.76;99576.06;20809429;28;20099;-73
2021/10/30 12:00:03;;;;;;;31.08;19.23;;;;;;;6.63;95.24;99621.69;20801604;28;20050;-78
2021/10/30 12:10:05;;;;;;;;;;;;;;;6.47;95.66;99656.53;20798681;28;20092;-74
2021/10/30 12:20:10;;;;;;;30.35;18.67;;;;;;;6.58;95.88;99619.13;20813527;28;19928;-74
2021/10/30 12:30:13;;;;;;;30.58;19.60;;;;;;;6.49;94.77;99613.19;20800979;28;20037;-75
2021/10/30 12:40:16;;;;;;;35.38;22.73;;;;;;;6.77;96.20;99611.97;20802330;28;20045;-75
2021/10/30 12:50:23;;;;;;;33.75;22.55;;;;;;;6.91;95.68;99584.00;20799112;28;20069;-75
2021/10/30 13:00:40;;;;;;;28.23;18.95;;;;;;;7.03;95.27;99579.50;20799301;28;20127;-76
2021/10/30 13:10:42;;;;;;;30.73;20.17;;;;;;;7.05;94.87;99559.53;20801254;28;20037;-75
2021/10/30 13:20:44;;;;;;;33.38;19.23;;;;;;;7.13;95.83;99552.44;20802304;28;20104;-75
2021/10/30 13:30:45;;;;;;;32.08;20.83;;;;;;;6.99;95.10;99551.81;20789641;28;20341;-75
2021/10/30 13:40:47;;;;;;;39.40;24.02;;;;;;;7.03;95.41;99530.06;20801790;28;20045;-75
2021/10/30 13:50:48;;;;;;;36.08;22.48;;;;;;;6.94;94.23;99537.09;20814142;28;20048;-76
2021/10/30 14:00:50;;;;;;;32.90;21.75;;;;;;;7.12;95.58;99527.31;20813349;28;20045;-75
2021/10/30 14:10:52;;;;;;;34.60;23.35;;;;;;;7.23;95.91;99535.81;20813041;28;20038;-76
2021/10/30 14:20:55;;;;;;;38.40;23.63;;;;;;;7.29;95.32;99498.41;20813158;28;20045;-75
2021/10/30 14:30:58;;;;;;;45.10;30.53;;;;;;;7.47;94.92;99485.06;20809610;28;20092;-75
2021/10/30 14:41:01;;;;;;;38.05;25.33;;;;;;;7.35;96.02;99501.75;20810232;28;20638;-75
2021/10/30 14:51:03;;;;;;;41.58;25.75;;;;;;;7.28;96.88;99505.38;20809966;28;20053;-74
2021/10/30 15:01:05;;;;;;;40.20;25.50;;;;;;;7.23;96.60;99503.69;20808135;28;20053;-73
2021/10/30 15:11:06;;;;;;;42.38;26.20;;;;;;;7.24;96.85;99511.50;20807481;28;20387;-73
2021/10/30 15:21:09;;;;;;;40.38;25.33;;;;;;;7.18;97.87;99528.06;20800224;28;20049;-73
2021/10/30 15:31:11;;;;;;;69.90;37.20;;;;;;;7.16;97.07;99513.38;20802180;28;20057;-73
2021/10/30 15:41:13;;;;;;;47.00;27.98;;;;;;;7.17;97.53;99525.50;20800921;28;20486;-73
2021/10/30 15:51:15;;;;;;;42.20;25.67;;;;;;;7.13;98.29;99535.09;20804147;28;20064;-73
2021/10/30 16:01:18;;;;;;;49.97;32.17;;;;;;;7.21;97.93;99545.41;20789105;28;20482;-72
2021/10/30 16:11:20;;;;;;;42.20;26.85;;;;;;;7.14;97.65;99556.81;20775043;28;20423;-73
2021/10/30 16:21:22;;;;;;;54.72;32.70;;;;;;;7.21;97.51;99561.00;20784434;28;20476;-73
2021/10/30 16:31:23;;;;;;;43.25;27.85;;;;;;;7.26;97.67;99564.41;20796048;28;20053;-73
2021/10/30 16:41:25;;;;;;;49.25;29.15;;;;;;;7.31;97.72;99575.59;20802282;28;20052;-73
2021/10/30 16:51:26;;;;;;;43.58;28.20;;;;;;;7.38;97.75;99600.69;20801069;28;20064;-73
2021/10/30 17:01:28;;;;;;;46.38;27.23;;;;;;;7.39;97.92;99593.72;20799498;28;20073;-73
2021/10/30 17:11:29;;;;;;;39.53;24.92;;;;;;;7.44;97.94;99604.94;20799949;28;20057;-73
2021/10/30 17:21:31;;;;;;;41.78;26.52;;;;;;;7.44;98.29;99602.31;20817605;28;20045;-73
2021/10/30 17:31:32;;;;;;;39.25;25.90;;;;;;;7.51;98.00;99662.97;20816385;28;20061;-72
2021/10/30 17:41:34;;;;;;;42.65;26.48;;;;;;;7.51;98.28;99673.41;20815888;28;20045;-73
2021/10/30 17:51:35;;;;;;;42.60;27.20;;;;;;;7.54;98.33;99642.97;20812933;28;20095;-73
2021/10/30 18:01:40;;;;;;;40.47;25.98;;;;;;;7.60;98.26;99644.59;20811605;28;20041;-72
2021/10/30 18:11:42;;;;;;;40.23;26.60;;;;;;;7.64;98.51;99651.50;20812911;28;20411;-73
2021/10/30 18:21:44;;;;;;;42.70;27.65;;;;;;;7.66;98.61;99649.72;20811874;28;20045;-72
2021/10/30 18:31:46;;;;;;;46.70;29.30;;;;;;;7.60;99.06;99668.91;20809108;28;20056;-72
2021/10/30 18:41:47;;;;;;;46.70;29.90;;;;;;;7.66;98.67;99701.81;20809821;28;20482;-72
2021/10/30 18:51:49;;;;;;;45.35;28.38;;;;;;;7.63;99.24;99696.69;20809298;28;20053;-72
2021/10/30 19:01:51;;;;;;;45.08;29.27;;;;;;;7.62;98.76;99694.97;20808962;28;20064;-72
2021/10/30 19:11:54;;;;;;;43.58;28.67;;;;;;;7.67;98.19;99720.06;20806243;28;20124;-72
2021/10/30 19:21:55;;;;;;;39.10;25.05;;;;;;;7.66;99.19;99714.84;20808159;28;20053;-72
2021/10/30 19:31:57;;;;;;;40.95;27.00;;;;;;;7.72;98.91;99718.25;20804797;28;20399;-72
2021/10/30 19:41:59;;;;;;;34.78;24.35;;;;;;;7.79;98.89;99742.47;20807157;28;20485;-73
2021/10/30 19:52:00;;;;;;;39.58;25.10;;;;;;;7.83;98.46;99743.28;20804289;28;20402;-74
2021/10/30 20:02:02;;;;;;;41.35;27.40;;;;;;;7.87;98.10;99742.34;20802421;28;20046;-73
2021/10/30 20:12:05;;;;;;;40.45;26.65;;;;;;;7.86;98.48;99756.28;20802905;28;20139;-73
2021/10/30 20:22:07;;;;;;;41.33;27.80;;;;;;;7.91;99.12;99760.53;20804410;28;20041;-73
2021/10/30 20:32:10;;;;;;;39.30;26.67;;;;;;;7.97;98.70;99768.25;20800609;28;20053;-73
2021/10/30 20:42:14;;;;;;;43.70;28.55;;;;;;;8.07;98.79;99782.00;20801794;28;20049;-73
2021/10/30 20:52:15;;;;;;;47.87;29.80;;;;;;;8.11;98.90;99780.22;20808292;28;20046;-76
2021/10/30 21:02:18;;;;;;;47.45;28.48;;;;;;;8.12;98.83;99781.94;20817413;28;20714;-73
2021/10/30 21:12:20;;;;;;;41.75;27.58;;;;;;;8.13;98.87;99801.91;20810291;28;20061;-74
2021/10/30 21:22:22;;;;;;;42.40;27.38;;;;;;;8.11;99.51;99812.38;20818364;28;20115;-73
2021/10/30 21:32:25;;;;;;;56.35;32.42;;;;;;;8.10;99.64;99818.47;20797622;28;20054;-73
2021/10/30 21:42:27;;;;;;;38.08;24.65;;;;;;;8.09;99.88;99800.22;20829484;28;20106;-73
2021/10/30 21:52:30;;;;;;;40.22;25.80;;;;;;;8.03;99.63;99797.72;20826183;28;20057;-74
2021/10/30 22:02:31;;;;;;;40.72;25.13;;;;;;;7.93;99.59;99800.44;20824483;28;20071;-74
2021/10/30 22:12:33;;;;;;;40.03;25.40;;;;;;;7.70;100.00;99824.22;20825806;28;20069;-75
2021/10/30 22:22:36;;;;;;;44.28;28.40;;;;;;;7.86;100.00;99818.81;20827223;28;20057;-76
2021/10/30 22:32:37;;;;;;;44.15;27.25;;;;;;;7.87;99.65;99831.81;20824734;28;20053;-76
2021/10/30 22:42:39;;;;;;;50.45;29.92;;;;;;;7.84;100.00;99821.44;20827226;28;20487;-75
2021/10/30 22:52:41;;;;;;;42.30;26.80;;;;;;;7.87;99.79;99847.47;20823181;28;20050;-73
2021/10/30 23:02:42;;;;;;;38.33;24.17;;;;;;;7.92;100.00;99840.44;20823053;28;20041;-75
2021/10/30 23:12:45;;;;;;;57.53;31.63;;;;;;;8.07;100.00;99843.72;20821776;28;20546;-75
2021/10/30 23:22:47;;;;;;;54.10;31.30;;;;;;;8.26;100.00;99839.09;20822108;28;20045;-74
2021/10/30 23:32:48;;;;;;;44.42;28.63;;;;;;;8.18;100.00;99873.94;20821515;28;20111;-73
2021/10/30 23:42:50;;;;;;;41.65;27.23;;;;;;;8.30;100.00;99872.06;20821548;28;20136;-76
2021/10/30 23:52:52;;;;;;;43.65;26.90;;;;;;;8.30;100.00;99862.50;20820248;28;20482;-77
